York, Western Australia

6:01 PM AWST on August 03, 2015 (GMT +0800)
York Western Australia | | Change Station
CLOSE
Current Station
Personal Weather Station
Location: York, Western Australia
Elevation: 620 ft
Nearby Weather Stations

Elev 620 ft 31.86 °S, 116.76 °E | Updated 10 seconds ago

Overcast
Overcast
55.5 °F
Feels Like 55.5 °F
N
9.2
Wind Variable Wind from ESE
Gusts 9.2 mph

Today
High -- | Low -- °F
--% Chance of Precip.
Yesterday
High -- | Low -- °F
Precip. -- in
7:00 AM 5:37 PM
Waning Gibbous, 88% visible
Pressure 30.48 in
Visibility 6.2 miles
Clouds Few 4500 ft
Overcast 30000 ft
Dew Point 48 °F
Humidity 77%
Rainfall 0.00 in
Snow Depth Not available.
UV 0 out of 12
Pollen Not available.
Air Quality Not available.
Flu Activity Not available.
METAR YPPH 030930Z 11007KT 9999 FEW045 OVC300 15/07 Q1032

More Conditions Fewer Conditions

Pressure 30.48 in
Visibility 6.2 miles
Clouds Few 4500 ft
Overcast 30000 ft
Dew Point 48 °F
Humidity 77%
Rainfall 0.00 in
Snow Depth Not available.
UV 0 out of 12
Pollen Not available.
Air Quality Not available.
Flu Activity Not available.
METAR YPPH 030930Z 11007KT 9999 FEW045 OVC300 15/07 Q1032

More Conditions Fewer Conditions

10-Day Weather Forecast

×

Almanac

Astronomy

Aug. 03, 2015 Rise Set
Actual Time
Civil Twilight
Nautical Twilight
Astronomical Twilight
Moon
Length of Visible Light
Length of Day
Tomorrow will be .
, % of the Moon is Illuminated

Today's Extremes

Country Highs Country Lows

Community

WunderPhotos

Upload Photos

1,843,610 photos uploaded!

WunderBlogs® & News

Nearby

Air Quality

  Air Quality AQ Index Pollutant
Not available.

Snow Depth

Station Depth Elevation

Earthquake Activity

City Distance Mag. Time & Date
Minimum magnitude displayed is 2.5.

Coastal Water Temperatures

Place Temperature

Stations

Nearby Weather Stations

Station Location Temp. Windchill Dew Point Humidity Wind Precip. Elev Updated Type